createdAt,value
2018-05-23T00:00:29.065Z,1007.71
2018-05-23T00:01:29.056Z,1007.74
2018-05-23T00:02:29.048Z,1007.76
2018-05-23T00:03:29.037Z,1007.74
2018-05-23T00:04:29.028Z,1007.73
2018-05-23T00:05:29.012Z,1007.71
2018-05-23T00:06:29.002Z,1007.72
2018-05-23T00:07:28.998Z,1007.69
2018-05-23T00:08:28.980Z,1007.68
2018-05-23T00:09:28.968Z,1007.68
2018-05-23T00:10:28.957Z,1007.68
2018-05-23T00:11:28.944Z,1007.69
2018-05-23T00:12:28.939Z,1007.71
2018-05-23T00:13:28.925Z,1007.7
2018-05-23T00:14:28.911Z,1007.72
2018-05-23T00:15:28.905Z,1007.72
2018-05-23T00:16:28.891Z,1007.73
2018-05-23T00:17:28.881Z,1007.69
2018-05-23T00:18:28.870Z,1007.75
2018-05-23T00:19:28.857Z,1007.75
2018-05-23T00:20:28.846Z,1007.73
2018-05-23T00:21:28.836Z,1007.74
2018-05-23T00:22:28.828Z,1007.76
2018-05-23T00:23:28.813Z,1007.75
2018-05-23T00:24:29.005Z,1007.76
2018-05-23T00:25:28.792Z,1007.78
2018-05-23T00:26:28.780Z,1007.77
2018-05-23T00:27:28.769Z,1007.78
2018-05-23T00:28:28.765Z,1007.74
2018-05-23T00:29:28.751Z,1007.74
2018-05-23T00:30:28.735Z,1007.73
2018-05-23T00:31:28.731Z,1007.74
2018-05-23T00:32:28.714Z,1007.71
2018-05-23T00:33:28.707Z,1007.71
2018-05-23T00:34:28.691Z,1007.71
2018-05-23T00:35:28.680Z,1007.69
2018-05-23T00:36:28.673Z,1007.69
2018-05-23T00:37:28.659Z,1007.66
2018-05-23T00:38:28.646Z,1007.64
2018-05-23T00:39:28.635Z,1007.65
2018-05-23T00:40:28.627Z,1007.64
2018-05-23T00:41:28.615Z,1007.64
2018-05-23T00:42:28.606Z,1007.62
2018-05-23T00:43:28.593Z,1007.65
2018-05-23T00:44:28.578Z,1007.62
2018-05-23T00:45:28.568Z,1007.65
2018-05-23T00:46:28.561Z,1007.64
2018-05-23T00:47:28.546Z,1007.66
2018-05-23T00:48:28.534Z,1007.66
2018-05-23T00:49:28.523Z,1007.65
2018-05-23T00:50:28.518Z,1007.66
2018-05-23T00:51:28.502Z,1007.7
2018-05-23T00:52:28.489Z,1007.7
2018-05-23T00:53:28.480Z,1007.68
2018-05-23T00:54:28.468Z,1007.69
2018-05-23T00:55:28.457Z,1007.69
2018-05-23T00:56:28.445Z,1007.69
2018-05-23T00:57:28.438Z,1007.67
2018-05-23T00:58:28.422Z,1007.68
2018-05-23T00:59:28.417Z,1007.68
2018-05-23T01:00:28.400Z,1007.71
2018-05-23T01:01:28.390Z,1007.66
2018-05-23T01:02:28.379Z,1007.68
2018-05-23T01:03:28.368Z,1007.66
2018-05-23T01:04:28.358Z,1007.73
2018-05-23T01:05:28.345Z,1007.69
2018-05-23T01:06:28.334Z,1007.69
2018-05-23T01:07:28.326Z,1007.72
2018-05-23T01:08:28.310Z,1007.74
2018-05-23T01:09:28.297Z,1007.71
2018-05-23T01:10:28.290Z,1007.75
2018-05-23T01:11:28.279Z,1007.69
2018-05-23T01:12:28.265Z,1007.74
2018-05-23T01:13:28.256Z,1007.73
2018-05-23T01:14:28.246Z,1007.74
2018-05-23T01:15:28.232Z,1007.75
2018-05-23T01:16:28.221Z,1007.73
2018-05-23T01:17:28.209Z,1007.73
2018-05-23T01:18:28.198Z,1007.72
2018-05-23T01:19:28.187Z,1007.73
2018-05-23T01:20:28.175Z,1007.74
2018-05-23T01:21:28.167Z,1007.7
2018-05-23T01:22:28.153Z,1007.73
2018-05-23T01:23:28.140Z,1007.75
2018-05-23T01:24:28.130Z,1007.72
2018-05-23T01:25:28.122Z,1007.72
2018-05-23T01:26:28.106Z,1007.71
2018-05-23T01:27:28.095Z,1007.72
2018-05-23T01:28:28.085Z,1007.78
2018-05-23T01:29:28.076Z,1007.76
2018-05-23T01:30:28.062Z,1007.76
2018-05-23T01:31:28.054Z,1007.79
2018-05-23T01:32:28.042Z,1007.79
2018-05-23T01:33:28.029Z,1007.78
2018-05-23T01:34:28.020Z,1007.77
2018-05-23T01:35:28.007Z,1007.78
2018-05-23T01:36:27.995Z,1007.78
2018-05-23T01:37:27.985Z,1007.77
2018-05-23T01:38:27.971Z,1007.72
2018-05-23T01:39:27.961Z,1007.72
2018-05-23T01:40:27.949Z,1007.71
2018-05-23T01:41:27.940Z,1007.74
2018-05-23T01:42:27.926Z,1007.7
2018-05-23T01:43:27.913Z,1007.73
2018-05-23T01:44:27.903Z,1007.74
2018-05-23T01:45:27.894Z,1007.78
2018-05-23T01:46:27.880Z,1007.79
2018-05-23T01:47:27.867Z,1007.76
2018-05-23T01:48:27.858Z,1007.73
2018-05-23T01:49:27.845Z,1007.71
2018-05-23T01:50:27.833Z,1007.72
2018-05-23T01:51:27.826Z,1007.69
2018-05-23T01:52:27.814Z,1007.74
2018-05-23T01:53:27.799Z,1007.76
2018-05-23T01:54:27.791Z,1007.73
2018-05-23T01:55:27.778Z,1007.75
2018-05-23T01:56:27.771Z,1007.72
2018-05-23T01:57:27.756Z,1007.73
2018-05-23T01:58:27.747Z,1007.73
2018-05-23T01:59:27.730Z,1007.73
2018-05-23T02:00:27.724Z,1007.75
2018-05-23T02:01:27.710Z,1007.73
2018-05-23T02:02:27.698Z,1007.73
2018-05-23T02:03:27.685Z,1007.74
2018-05-23T02:04:27.683Z,1007.75
2018-05-23T02:05:27.662Z,1007.71
2018-05-23T02:06:27.655Z,1007.74
2018-05-23T02:07:27.640Z,1007.75
2018-05-23T02:08:27.630Z,1007.76
2018-05-23T02:09:27.615Z,1007.76
2018-05-23T02:10:27.604Z,1007.76
2018-05-23T02:11:27.596Z,1007.79
2018-05-23T02:12:27.581Z,1007.75
2018-05-23T02:13:27.571Z,1007.74
2018-05-23T02:14:27.569Z,1007.8
2018-05-23T02:15:27.547Z,1007.78
2018-05-23T02:16:27.533Z,1007.8
2018-05-23T02:17:27.523Z,1007.78
2018-05-23T02:18:27.512Z,1007.83
2018-05-23T02:19:27.502Z,1007.8
2018-05-23T02:20:27.489Z,1007.84
2018-05-23T02:21:27.476Z,1007.83
2018-05-23T02:22:27.469Z,1007.83
2018-05-23T02:23:27.453Z,1007.86
2018-05-23T02:24:27.648Z,1007.84
2018-05-23T02:25:27.433Z,1007.89
2018-05-23T02:26:27.421Z,1007.89
2018-05-23T02:27:27.407Z,1007.88
2018-05-23T02:28:27.396Z,1007.86
2018-05-23T02:29:27.385Z,1007.87
2018-05-23T02:30:27.373Z,1007.9
2018-05-23T02:31:27.360Z,1007.88
2018-05-23T02:32:27.353Z,1007.88
2018-05-23T02:33:27.337Z,1007.91
2018-05-23T02:34:27.327Z,1007.9
2018-05-23T02:35:27.322Z,1007.9
2018-05-23T02:36:27.302Z,1007.88
2018-05-23T02:37:27.293Z,1007.91
2018-05-23T02:38:27.279Z,1007.91
2018-05-23T02:39:27.268Z,1007.93
2018-05-23T02:40:27.261Z,1007.95
2018-05-23T02:41:27.247Z,1007.92
2018-05-23T02:42:27.235Z,1007.92
2018-05-23T02:43:27.225Z,1007.91
2018-05-23T02:44:27.215Z,1007.9
2018-05-23T02:45:27.200Z,1007.93
2018-05-23T02:46:27.188Z,1007.93
2018-05-23T02:47:27.183Z,1007.92
2018-05-23T02:48:27.170Z,1007.88
2018-05-23T02:49:27.152Z,1007.9
2018-05-23T02:50:27.144Z,1007.88
2018-05-23T02:51:27.131Z,1007.91
2018-05-23T02:52:27.120Z,1007.95
2018-05-23T02:53:27.109Z,1007.96
2018-05-23T02:54:27.096Z,1007.97
2018-05-23T02:55:27.089Z,1008.01
2018-05-23T02:56:27.072Z,1008
2018-05-23T02:57:27.061Z,1008.02
2018-05-23T02:58:27.049Z,1008.06
2018-05-23T02:59:27.041Z,1008.05
2018-05-23T03:00:27.031Z,1008.05
2018-05-23T03:01:27.016Z,1008.08
2018-05-23T03:02:27.005Z,1008.07
2018-05-23T03:03:26.992Z,1008.08
2018-05-23T03:04:26.983Z,1008.08
2018-05-23T03:05:26.968Z,1008.15
2018-05-23T03:06:26.956Z,1008.16
2018-05-23T03:07:26.943Z,1008.16
2018-05-23T03:08:26.934Z,1008.2
2018-05-23T03:09:26.925Z,1008.23
2018-05-23T03:10:26.909Z,1008.21
2018-05-23T03:11:26.896Z,1008.22
2018-05-23T03:12:26.885Z,1008.23
2018-05-23T03:13:26.884Z,1008.26
2018-05-23T03:14:26.864Z,1008.22
2018-05-23T03:15:26.854Z,1008.24
2018-05-23T03:16:26.850Z,1008.23
2018-05-23T03:17:26.835Z,1008.24
2018-05-23T03:18:26.817Z,1008.2
2018-05-23T03:19:26.805Z,1008.22
2018-05-23T03:20:26.796Z,1008.21
2018-05-23T03:21:26.783Z,1008.26
2018-05-23T03:22:26.771Z,1008.23
2018-05-23T03:23:26.762Z,1008.21
2018-05-23T03:24:26.753Z,1008.24
2018-05-23T03:25:26.740Z,1008.24
2018-05-23T03:26:26.724Z,1008.24
2018-05-23T03:27:26.713Z,1008.2
2018-05-23T03:28:26.703Z,1008.25
2018-05-23T03:29:26.689Z,1008.27
2018-05-23T03:30:26.680Z,1008.24
2018-05-23T03:31:26.677Z,1008.27
2018-05-23T03:32:26.654Z,1008.28
2018-05-23T03:33:26.644Z,1008.29
2018-05-23T03:34:26.632Z,1008.32
2018-05-23T03:35:26.623Z,1008.35
2018-05-23T03:36:26.607Z,1008.33
2018-05-23T03:37:26.598Z,1008.35
2018-05-23T03:38:26.585Z,1008.36
2018-05-23T03:39:26.577Z,1008.37
2018-05-23T03:40:26.561Z,1008.37
2018-05-23T03:41:26.553Z,1008.37
2018-05-23T03:42:26.538Z,1008.35
2018-05-23T03:43:26.525Z,1008.34
2018-05-23T03:44:26.513Z,1008.34
2018-05-23T03:45:26.503Z,1008.32
2018-05-23T03:46:26.491Z,1008.32
2018-05-23T03:47:26.479Z,1008.32
2018-05-23T03:48:26.468Z,1008.32
2018-05-23T03:49:26.462Z,1008.33
2018-05-23T03:50:26.444Z,1008.32
2018-05-23T03:51:26.432Z,1008.34
2018-05-23T03:52:26.420Z,1008.33
2018-05-23T03:53:26.411Z,1008.39
2018-05-23T03:54:26.403Z,1008.38
2018-05-23T03:55:26.492Z,1008.34
2018-05-23T03:56:26.372Z,1008.36
2018-05-23T03:57:26.363Z,1008.4
2018-05-23T03:58:26.354Z,1008.42
2018-05-23T03:59:26.338Z,1008.43
2018-05-23T04:00:26.327Z,1008.39
2018-05-23T04:01:26.319Z,1008.43
2018-05-23T04:02:26.303Z,1008.4
2018-05-23T04:03:26.290Z,1008.4
2018-05-23T04:04:26.278Z,1008.45
2018-05-23T04:05:26.271Z,1008.43
2018-05-23T04:06:26.258Z,1008.47
2018-05-23T04:07:26.248Z,1008.45
2018-05-23T04:08:26.232Z,1008.49
2018-05-23T04:09:26.219Z,1008.46
2018-05-23T04:10:26.210Z,1008.42
2018-05-23T04:11:26.199Z,1008.46
2018-05-23T04:12:26.185Z,1008.46
2018-05-23T04:13:26.175Z,1008.46
2018-05-23T04:14:26.161Z,1008.47
2018-05-23T04:15:26.240Z,1008.46
2018-05-23T04:16:26.138Z,1008.52
2018-05-23T04:17:26.134Z,1008.52
2018-05-23T04:18:26.118Z,1008.51
2018-05-23T04:19:26.103Z,1008.53
2018-05-23T04:20:26.090Z,1008.54
2018-05-23T04:21:26.079Z,1008.54
2018-05-23T04:22:26.068Z,1008.54
2018-05-23T04:23:26.133Z,1008.59
2018-05-23T04:24:26.251Z,1008.6
2018-05-23T04:25:26.038Z,1008.6
2018-05-23T04:26:26.023Z,1008.57
2018-05-23T04:27:26.011Z,1008.57
2018-05-23T04:28:25.998Z,1008.61
2018-05-23T04:29:25.987Z,1008.59
2018-05-23T04:30:25.978Z,1008.6
2018-05-23T04:31:25.965Z,1008.59
2018-05-23T04:32:25.976Z,1008.64
2018-05-23T04:33:25.955Z,1008.64
2018-05-23T04:34:25.928Z,1008.65
2018-05-23T04:35:25.924Z,1008.64
2018-05-23T04:36:25.906Z,1008.68
2018-05-23T04:37:25.894Z,1008.72
2018-05-23T04:38:25.882Z,1008.68
2018-05-23T04:39:25.952Z,1008.72
2018-05-23T04:40:25.866Z,1008.7
2018-05-23T04:41:25.847Z,1008.76
2018-05-23T04:42:25.840Z,1008.74
2018-05-23T04:43:25.825Z,1008.78
2018-05-23T04:44:25.813Z,1008.74
2018-05-23T04:45:25.801Z,1008.79
2018-05-23T04:46:25.789Z,1008.8
2018-05-23T04:47:25.777Z,1008.8
2018-05-23T04:48:25.767Z,1008.81
2018-05-23T04:49:25.761Z,1008.83
2018-05-23T04:50:25.744Z,1008.82
2018-05-23T04:51:25.733Z,1008.87
2018-05-23T04:52:25.720Z,1008.86
2018-05-23T04:53:25.713Z,1008.85
2018-05-23T04:54:25.696Z,1008.83
2018-05-23T04:55:25.686Z,1008.84
2018-05-23T04:56:25.674Z,1008.82
2018-05-23T04:57:25.665Z,1008.88
2018-05-23T04:58:25.651Z,1008.87
2018-05-23T04:59:25.676Z,1008.88
2018-05-23T05:00:25.631Z,1008.91
2018-05-23T05:01:25.617Z,1008.97
2018-05-23T05:02:25.605Z,1009.03
2018-05-23T05:03:25.593Z,1008.99
2018-05-23T05:04:25.583Z,1009.04
2018-05-23T05:05:25.571Z,1009.06
2018-05-23T05:06:25.561Z,1009.09
2018-05-23T05:07:25.550Z,1009.11
2018-05-23T05:08:25.535Z,1009.11
2018-05-23T05:09:25.527Z,1009.16
2018-05-23T05:10:25.517Z,1009.17
2018-05-23T05:11:25.506Z,1009.16
2018-05-23T05:12:25.493Z,1009.14
2018-05-23T05:13:25.487Z,1009.18
2018-05-23T05:14:25.531Z,1009.19
2018-05-23T05:15:25.454Z,1009.2
2018-05-23T05:16:25.445Z,1009.21
2018-05-23T05:17:25.435Z,1009.2
2018-05-23T05:18:25.423Z,1009.21
2018-05-23T05:19:25.420Z,1009.18
2018-05-23T05:20:25.400Z,1009.26
2018-05-23T05:21:25.389Z,1009.27
2018-05-23T05:22:25.377Z,1009.26
2018-05-23T05:23:25.372Z,1009.29
2018-05-23T05:24:25.356Z,1009.3
2018-05-23T05:25:25.346Z,1009.3
2018-05-23T05:26:25.333Z,1009.33
2018-05-23T05:27:25.322Z,1009.36
2018-05-23T05:28:25.312Z,1009.41
2018-05-23T05:29:25.298Z,1009.43
2018-05-23T05:30:25.291Z,1009.41
2018-05-23T05:31:25.277Z,1009.42
2018-05-23T05:32:25.267Z,1009.45
2018-05-23T05:33:25.257Z,1009.49
2018-05-23T05:34:25.246Z,1009.5
2018-05-23T05:35:25.237Z,1009.52
2018-05-23T05:36:25.223Z,1009.55
2018-05-23T05:37:25.216Z,1009.58
2018-05-23T05:38:25.201Z,1009.6
2018-05-23T05:39:25.190Z,1009.62
2018-05-23T05:40:25.176Z,1009.59
2018-05-23T05:41:25.166Z,1009.65
2018-05-23T05:42:25.157Z,1009.61
2018-05-23T05:43:25.143Z,1009.61
2018-05-23T05:44:25.137Z,1009.65
2018-05-23T05:45:25.124Z,1009.63
2018-05-23T05:46:25.115Z,1009.69
2018-05-23T05:47:25.103Z,1009.68
2018-05-23T05:48:25.089Z,1009.67
2018-05-23T05:49:25.081Z,1009.66
2018-05-23T05:50:25.069Z,1009.73
2018-05-23T05:51:25.055Z,1009.72
2018-05-23T05:52:25.051Z,1009.76
2018-05-23T05:53:25.035Z,1009.77
2018-05-23T05:54:25.028Z,1009.8
2018-05-23T05:55:25.014Z,1009.82
2018-05-23T05:56:25.007Z,1009.81
2018-05-23T05:57:24.998Z,1009.88
2018-05-23T05:58:24.987Z,1009.89
2018-05-23T05:59:24.978Z,1009.92
2018-05-23T06:00:24.959Z,1009.91
2018-05-23T06:01:24.953Z,1009.95
2018-05-23T06:02:24.937Z,1009.93
2018-05-23T06:03:24.928Z,1009.95
2018-05-23T06:04:24.921Z,1010
2018-05-23T06:05:24.907Z,1010.02
2018-05-23T06:06:24.897Z,1009.98
2018-05-23T06:07:24.905Z,1010
2018-05-23T06:08:24.876Z,1010.03
2018-05-23T06:09:24.869Z,1010.02
2018-05-23T06:10:24.853Z,1010.04
2018-05-23T06:11:24.843Z,1010.05
2018-05-23T06:12:24.834Z,1010.06
2018-05-23T06:13:24.823Z,1010.09
2018-05-23T06:14:24.845Z,1010.03
2018-05-23T06:15:24.803Z,1010.04
2018-05-23T06:16:24.791Z,1010.03
2018-05-23T06:17:24.781Z,1010.08
2018-05-23T06:18:24.770Z,1009.99
2018-05-23T06:19:24.762Z,1010.07
2018-05-23T06:20:24.749Z,1010.05
2018-05-23T06:21:24.738Z,1010.08
2018-05-23T06:22:24.780Z,1010.05
2018-05-23T06:23:24.720Z,1010.07
2018-05-23T06:24:24.911Z,1010.04
2018-05-23T06:25:24.696Z,1010.07
2018-05-23T06:26:24.688Z,1010.14
2018-05-23T06:27:24.678Z,1010.09
2018-05-23T06:28:24.668Z,1010.11
2018-05-23T06:29:24.657Z,1010.16
2018-05-23T06:30:24.650Z,1010.18
2018-05-23T06:31:24.636Z,1010.17
2018-05-23T06:32:24.629Z,1010.15
2018-05-23T06:33:24.630Z,1010.18
2018-05-23T06:34:24.611Z,1010.15
2018-05-23T06:35:24.597Z,1010.14
2018-05-23T06:36:24.588Z,1010.16
2018-05-23T06:37:24.575Z,1010.18
2018-05-23T06:38:24.571Z,1010.18
2018-05-23T06:39:24.564Z,1010.15
2018-05-23T06:40:24.546Z,1010.18
2018-05-23T06:41:24.535Z,1010.21
2018-05-23T06:42:24.526Z,1010.21
2018-05-23T06:43:24.529Z,1010.19
2018-05-23T06:44:24.507Z,1010.2
2018-05-23T06:45:24.497Z,1010.2
2018-05-23T06:46:24.486Z,1010.19
2018-05-23T06:47:24.477Z,1010.19
2018-05-23T06:48:24.468Z,1010.2
2018-05-23T06:49:24.456Z,1010.19
2018-05-23T06:50:24.446Z,1010.25
2018-05-23T06:51:24.439Z,1010.22
2018-05-23T06:52:24.429Z,1010.22
2018-05-23T06:53:24.450Z,1010.23
2018-05-23T06:54:24.412Z,1010.25
2018-05-23T06:55:24.399Z,1010.23
2018-05-23T06:56:24.390Z,1010.27
2018-05-23T06:57:24.379Z,1010.32
2018-05-23T06:58:24.371Z,1010.33
2018-05-23T06:59:24.361Z,1010.33
2018-05-23T07:00:24.354Z,1010.3
2018-05-23T07:01:24.341Z,1010.39
2018-05-23T07:02:24.333Z,1010.32
2018-05-23T07:03:24.323Z,1010.35
2018-05-23T07:04:24.314Z,1010.33
2018-05-23T07:05:24.307Z,1010.35
2018-05-23T07:06:24.298Z,1010.36
2018-05-23T07:07:24.288Z,1010.36
2018-05-23T07:08:24.280Z,1010.37
2018-05-23T07:09:24.266Z,1010.34
2018-05-23T07:10:24.265Z,1010.34
2018-05-23T07:11:24.250Z,1010.35
2018-05-23T07:12:24.242Z,1010.33
2018-05-23T07:13:24.230Z,1010.37
2018-05-23T07:14:24.224Z,1010.4
2018-05-23T07:15:24.211Z,1010.41
2018-05-23T07:16:24.203Z,1010.38
2018-05-23T07:17:24.195Z,1010.39
2018-05-23T07:18:24.185Z,1010.4
2018-05-23T07:19:24.179Z,1010.4
2018-05-23T07:20:24.168Z,1010.41
2018-05-23T07:21:24.160Z,1010.46
2018-05-23T07:22:24.151Z,1010.52
2018-05-23T07:23:24.141Z,1010.51
2018-05-23T07:24:24.133Z,1010.52
2018-05-23T07:25:24.130Z,1010.55
2018-05-23T07:26:24.117Z,1010.54
2018-05-23T07:27:24.108Z,1010.56
2018-05-23T07:28:24.251Z,1010.55
2018-05-23T07:29:24.091Z,1010.59
2018-05-23T07:30:24.081Z,1010.62
2018-05-23T07:31:24.101Z,1010.62
2018-05-23T07:32:24.065Z,1010.63
2018-05-23T07:33:24.062Z,1010.63
2018-05-23T07:34:24.050Z,1010.64
2018-05-23T07:35:24.046Z,1010.64
2018-05-23T07:36:24.035Z,1010.67
2018-05-23T07:37:24.024Z,1010.68
2018-05-23T07:38:24.056Z,1010.64
2018-05-23T07:39:24.014Z,1010.66
2018-05-23T07:40:24.000Z,1010.68
2018-05-23T07:41:23.992Z,1010.68
2018-05-23T07:42:23.993Z,1010.73
2018-05-23T07:43:23.976Z,1010.67
2018-05-23T07:44:23.967Z,1010.71
2018-05-23T07:45:23.960Z,1010.69
2018-05-23T07:46:23.953Z,1010.7
2018-05-23T07:47:23.944Z,1010.71
2018-05-23T07:48:23.937Z,1010.68
2018-05-23T07:49:23.930Z,1010.73
2018-05-23T07:50:23.930Z,1010.69
2018-05-23T07:51:23.915Z,1010.72
2018-05-23T07:52:23.906Z,1010.72
2018-05-23T07:53:23.902Z,1010.73
2018-05-23T07:54:23.891Z,1010.76
2018-05-23T07:55:23.883Z,1010.78
2018-05-23T07:56:23.876Z,1010.73
2018-05-23T07:57:23.869Z,1010.72
2018-05-23T07:58:23.867Z,1010.7
2018-05-23T07:59:23.864Z,1010.69
2018-05-23T08:00:23.846Z,1010.72
2018-05-23T08:01:23.841Z,1010.74
2018-05-23T08:02:23.840Z,1010.77
2018-05-23T08:03:23.828Z,1010.77
2018-05-23T08:04:23.822Z,1010.77
2018-05-23T08:05:23.814Z,1010.74
2018-05-23T08:06:23.805Z,1010.77
2018-05-23T08:07:23.798Z,1010.75
2018-05-23T08:08:23.790Z,1010.74
2018-05-23T08:09:23.787Z,1010.74
2018-05-23T08:10:23.783Z,1010.72
2018-05-23T08:11:23.773Z,1010.77
2018-05-23T08:12:23.766Z,1010.74
2018-05-23T08:13:23.757Z,1010.76
2018-05-23T08:14:23.749Z,1010.8
2018-05-23T08:15:23.746Z,1010.81
2018-05-23T08:16:23.737Z,1010.81
2018-05-23T08:17:23.732Z,1010.8
2018-05-23T08:18:23.728Z,1010.86
2018-05-23T08:19:23.719Z,1010.9
2018-05-23T08:20:23.709Z,1010.86
2018-05-23T08:21:23.701Z,1010.85
2018-05-23T08:22:23.693Z,1010.91
2018-05-23T08:23:23.685Z,1010.9
2018-05-23T08:24:23.764Z,1010.98
2018-05-23T08:25:23.672Z,1010.98
2018-05-23T08:26:23.666Z,1010.92
2018-05-23T08:27:23.660Z,1010.92
2018-05-23T08:28:23.655Z,1010.91
2018-05-23T08:29:23.647Z,1010.93
2018-05-23T08:30:23.638Z,1010.93
2018-05-23T08:31:23.634Z,1010.97
2018-05-23T08:32:23.626Z,1011
2018-05-23T08:33:23.619Z,1010.97
2018-05-23T08:34:23.613Z,1010.98
2018-05-23T08:35:23.609Z,1011.03
2018-05-23T08:36:23.635Z,1011
2018-05-23T08:37:23.603Z,1011.02
2018-05-23T08:38:23.591Z,1011.05
2018-05-23T08:39:23.585Z,1011.04
2018-05-23T08:40:23.575Z,1011.02
2018-05-23T08:41:23.570Z,1011.06
2018-05-23T08:42:23.581Z,1011.07
2018-05-23T08:43:23.561Z,1011.08
2018-05-23T08:44:23.552Z,1011.06
2018-05-23T08:45:23.545Z,1011.04
2018-05-23T08:46:23.544Z,1011.08
2018-05-23T08:47:23.533Z,1011.07
2018-05-23T08:48:23.527Z,1011.11
2018-05-23T08:49:23.604Z,1011.09
2018-05-23T08:50:23.525Z,1011.07
2018-05-23T08:51:23.511Z,1011.1
2018-05-23T08:52:23.504Z,1011.08
2018-05-23T08:53:23.497Z,1011.09
2018-05-23T08:54:23.491Z,1011.12
2018-05-23T08:55:23.485Z,1011.12
2018-05-23T08:56:23.479Z,1011.14
2018-05-23T08:57:23.474Z,1011.17
2018-05-23T08:58:23.468Z,1011.16
2018-05-23T08:59:23.469Z,1011.14
2018-05-23T09:00:23.459Z,1011.21
2018-05-23T09:01:23.461Z,1011.22
2018-05-23T09:02:23.446Z,1011.2
2018-05-23T09:03:23.440Z,1011.24
2018-05-23T09:04:23.442Z,1011.2
2018-05-23T09:05:23.428Z,1011.23
2018-05-23T09:06:23.425Z,1011.22
2018-05-23T09:07:23.419Z,1011.25
2018-05-23T09:08:23.414Z,1011.26
2018-05-23T09:09:23.416Z,1011.24
2018-05-23T09:10:23.406Z,1011.25
2018-05-23T09:11:23.399Z,1011.27
2018-05-23T09:12:23.514Z,1011.32
2018-05-23T09:13:23.388Z,1011.29
2018-05-23T09:14:23.382Z,1011.29
2018-05-23T09:15:23.380Z,1011.28
2018-05-23T09:16:23.374Z,1011.33
2018-05-23T09:17:23.367Z,1011.34
2018-05-23T09:18:23.366Z,1011.31
2018-05-23T09:19:23.356Z,1011.37
2018-05-23T09:20:23.351Z,1011.36
2018-05-23T09:21:23.349Z,1011.39
2018-05-23T09:22:23.344Z,1011.35
2018-05-23T09:23:23.336Z,1011.4
2018-05-23T09:24:23.332Z,1011.41
2018-05-23T09:25:23.407Z,1011.43
2018-05-23T09:26:23.322Z,1011.42
2018-05-23T09:27:23.316Z,1011.42
2018-05-23T09:28:23.316Z,1011.44
2018-05-23T09:29:23.307Z,1011.45
2018-05-23T09:30:23.301Z,1011.48
2018-05-23T09:31:23.300Z,1011.47
2018-05-23T09:32:23.293Z,1011.45
2018-05-23T09:33:23.288Z,1011.47
2018-05-23T09:34:23.282Z,1011.48
2018-05-23T09:35:23.283Z,1011.55
2018-05-23T09:36:23.273Z,1011.55
2018-05-23T09:37:23.271Z,1011.54
2018-05-23T09:38:23.262Z,1011.56
2018-05-23T09:39:23.257Z,1011.55
2018-05-23T09:40:23.257Z,1011.57
2018-05-23T09:41:23.244Z,1011.58
2018-05-23T09:42:23.242Z,1011.57
2018-05-23T09:43:23.237Z,1011.59
2018-05-23T09:44:23.231Z,1011.59
2018-05-23T09:45:23.225Z,1011.63
2018-05-23T09:46:23.221Z,1011.64
2018-05-23T09:47:23.215Z,1011.6
2018-05-23T09:48:23.211Z,1011.62
2018-05-23T09:49:23.206Z,1011.65
2018-05-23T09:50:23.207Z,1011.64
2018-05-23T09:51:23.193Z,1011.69
2018-05-23T09:52:23.188Z,1011.62
2018-05-23T09:53:23.184Z,1011.67
2018-05-23T09:54:23.178Z,1011.67
2018-05-23T09:55:23.173Z,1011.67
2018-05-23T09:56:23.167Z,1011.69
2018-05-23T09:57:23.161Z,1011.64
2018-05-23T09:58:23.160Z,1011.68
2018-05-23T09:59:23.151Z,1011.65
2018-05-23T10:00:23.146Z,1011.72
2018-05-23T10:01:23.140Z,1011.68
2018-05-23T10:02:23.135Z,1011.7
2018-05-23T10:03:23.135Z,1011.74
2018-05-23T10:04:23.123Z,1011.72
2018-05-23T10:05:23.121Z,1011.73
2018-05-23T10:06:23.113Z,1011.75
2018-05-23T10:07:23.104Z,1011.73
2018-05-23T10:08:23.104Z,1011.73
2018-05-23T10:09:23.099Z,1011.74
2018-05-23T10:10:23.088Z,1011.78
2018-05-23T10:11:23.082Z,1011.77
2018-05-23T10:12:23.077Z,1011.78
2018-05-23T10:13:23.071Z,1011.81
2018-05-23T10:14:23.068Z,1011.81
2018-05-23T10:15:23.066Z,1011.83
2018-05-23T10:16:23.054Z,1011.88
2018-05-23T10:17:23.050Z,1011.92
2018-05-23T10:18:23.042Z,1011.9
2018-05-23T10:19:23.039Z,1011.95
2018-05-23T10:20:23.034Z,1011.92
2018-05-23T10:21:23.027Z,1011.94
2018-05-23T10:22:23.022Z,1011.95
2018-05-23T10:23:23.021Z,1011.98
2018-05-23T10:24:23.010Z,1012.06
2018-05-23T10:25:23.208Z,1012.07
2018-05-23T10:26:23.018Z,1012.08
2018-05-23T10:27:23.001Z,1012.06
2018-05-23T10:28:22.991Z,1012
2018-05-23T10:29:22.990Z,1012.11
2018-05-23T10:30:22.982Z,1012.08
2018-05-23T10:31:22.977Z,1012.1
2018-05-23T10:32:22.975Z,1012.09
2018-05-23T10:33:23.053Z,1012.11
2018-05-23T10:34:22.965Z,1012.11
2018-05-23T10:35:22.961Z,1012.06
2018-05-23T10:36:22.956Z,1012.07
2018-05-23T10:37:22.953Z,1012.15
2018-05-23T10:38:22.948Z,1012.12
2018-05-23T10:39:22.945Z,1012.13
2018-05-23T10:40:22.941Z,1012.13
2018-05-23T10:41:22.938Z,1012.17
2018-05-23T10:42:22.934Z,1012.21
2018-05-23T10:43:22.932Z,1012.19
2018-05-23T10:44:22.928Z,1012.21
2018-05-23T10:45:22.925Z,1012.16
2018-05-23T10:46:22.925Z,1012.19
2018-05-23T10:47:22.918Z,1012.16
2018-05-23T10:48:22.919Z,1012.22
2018-05-23T10:49:22.912Z,1012.23
2018-05-23T10:50:22.910Z,1012.22
2018-05-23T10:51:22.905Z,1012.21
2018-05-23T10:52:22.900Z,1012.23
2018-05-23T10:53:22.897Z,1012.25
2018-05-23T10:54:22.895Z,1012.25
2018-05-23T10:55:22.892Z,1012.22
2018-05-23T10:56:22.886Z,1012.25
2018-05-23T10:57:22.882Z,1012.23
2018-05-23T10:58:22.878Z,1012.26
2018-05-23T10:59:22.876Z,1012.27
2018-05-23T11:00:22.872Z,1012.28
2018-05-23T11:01:22.868Z,1012.3
2018-05-23T11:02:22.868Z,1012.26
2018-05-23T11:03:22.864Z,1012.31
2018-05-23T11:04:22.857Z,1012.28
2018-05-23T11:05:22.853Z,1012.31
2018-05-23T11:06:22.849Z,1012.3
2018-05-23T11:07:22.849Z,1012.27
2018-05-23T11:08:22.843Z,1012.28
2018-05-23T11:09:22.838Z,1012.31
2018-05-23T11:10:22.842Z,1012.29
2018-05-23T11:11:22.833Z,1012.27
2018-05-23T11:12:22.828Z,1012.33
2018-05-23T11:13:22.824Z,1012.3
2018-05-23T11:14:22.824Z,1012.29
2018-05-23T11:15:22.841Z,1012.33
2018-05-23T11:16:22.816Z,1012.32
2018-05-23T11:17:22.812Z,1012.33
2018-05-23T11:18:22.809Z,1012.36
2018-05-23T11:19:22.807Z,1012.33
2018-05-23T11:20:22.804Z,1012.39
2018-05-23T11:21:22.795Z,1012.38
2018-05-23T11:22:22.791Z,1012.39
2018-05-23T11:23:22.789Z,1012.38
2018-05-23T11:24:22.787Z,1012.41
2018-05-23T11:25:22.780Z,1012.36
2018-05-23T11:26:22.779Z,1012.39
2018-05-23T11:27:22.772Z,1012.38
2018-05-23T11:28:22.769Z,1012.38
2018-05-23T11:29:22.764Z,1012.36
2018-05-23T11:30:22.764Z,1012.39
2018-05-23T11:31:22.762Z,1012.44
2018-05-23T11:32:22.753Z,1012.44
2018-05-23T11:33:22.752Z,1012.43
2018-05-23T11:34:22.747Z,1012.42
2018-05-23T11:35:22.740Z,1012.45
2018-05-23T11:36:22.735Z,1012.43
2018-05-23T11:37:22.732Z,1012.43
2018-05-23T11:38:22.726Z,1012.44
2018-05-23T11:39:22.723Z,1012.49
2018-05-23T11:40:22.717Z,1012.41
2018-05-23T11:41:22.713Z,1012.42
2018-05-23T11:42:22.709Z,1012.47
2018-05-23T11:43:22.706Z,1012.51
2018-05-23T11:44:22.701Z,1012.48
2018-05-23T11:45:22.696Z,1012.49
2018-05-23T11:46:22.693Z,1012.47
2018-05-23T11:47:22.688Z,1012.46
2018-05-23T11:48:22.683Z,1012.47
2018-05-23T11:49:22.677Z,1012.48
2018-05-23T11:50:22.670Z,1012.48
2018-05-23T11:51:22.666Z,1012.46
2018-05-23T11:52:22.664Z,1012.51
2018-05-23T11:53:22.657Z,1012.48
2018-05-23T11:54:22.653Z,1012.47
2018-05-23T11:55:22.647Z,1012.45
2018-05-23T11:56:22.646Z,1012.42
2018-05-23T11:57:22.637Z,1012.43
2018-05-23T11:58:22.633Z,1012.4
2018-05-23T11:59:22.627Z,1012.39
2018-05-23T12:00:22.622Z,1012.37
2018-05-23T12:01:22.619Z,1012.4
2018-05-23T12:02:22.612Z,1012.42
2018-05-23T12:03:22.607Z,1012.43
2018-05-23T12:04:22.609Z,1012.41
2018-05-23T12:05:22.598Z,1012.4
2018-05-23T12:06:22.593Z,1012.43
2018-05-23T12:07:22.585Z,1012.41
2018-05-23T12:08:22.579Z,1012.44